Time;durP1;ratioP1;P1;durP2;ratioP2;P2;SDS_P1;SDS_P2;PMS_P1;PMS_P2;Temp;Humidity;BMP_temperature;BMP_pressure;BME280_temperature;BME280_humidity;BME280_pressure;Samples;Min_cycle;Max_cycle;Signal;HPM_P1;HPM_P2
2022/03/16 00:00:08;;;;;;;29.00;9.90;;;;;;;8.12;41.14;100860.22;4425338;32;20523;-72
2022/03/16 00:02:42;;;;;;;16.73;8.32;;;;;;;8.13;43.26;100841.00;4439678;32;20471;-72
2022/03/16 00:05:09;;;;;;;21.52;9.05;;;;;;;8.22;43.18;100829.66;4439577;32;20089;-72
2022/03/16 00:07:37;;;;;;;25.45;11.00;;;;;;;8.13;44.43;100813.88;4439541;32;20085;-72
2022/03/16 00:10:07;;;;;;;22.80;10.50;;;;;;;8.04;45.56;100821.69;4439670;32;20132;-72
2022/03/16 00:12:38;;;;;;;24.15;9.48;;;;;;;7.97;45.58;100818.16;4439357;32;20516;-72
2022/03/16 00:15:07;;;;;;;21.45;10.00;;;;;;;7.81;46.99;100817.19;4439644;32;20218;-72
2022/03/16 00:17:34;;;;;;;23.60;10.48;;;;;;;7.81;45.56;100817.19;4439483;32;20155;-72
2022/03/16 00:20:02;;;;;;;17.05;9.90;;;;;;;7.85;46.49;100816.34;4439377;32;20081;-72
2022/03/16 00:22:29;;;;;;;18.30;10.30;;;;;;;7.79;46.15;100828.53;4439103;32;20097;-72
2022/03/16 00:24:56;;;;;;;23.20;10.20;;;;;;;7.75;46.26;100821.53;4424114;32;20505;-72
2022/03/16 00:27:23;;;;;;;22.35;10.70;;;;;;;7.88;46.23;100818.12;4425325;32;20096;-72
2022/03/16 00:29:50;;;;;;;20.90;10.77;;;;;;;7.86;46.58;100809.34;4439298;32;20184;-72
2022/03/16 00:32:18;;;;;;;21.77;10.43;;;;;;;7.71;48.88;100814.50;4439398;32;20233;-72
2022/03/16 00:34:45;;;;;;;20.52;10.57;;;;;;;7.60;50.79;100812.69;4439476;32;20108;-72
2022/03/16 00:37:12;;;;;;;25.37;11.45;;;;;;;7.50;54.50;100805.63;4439254;32;20106;-72
2022/03/16 00:39:40;;;;;;;22.17;11.82;;;;;;;7.52;54.12;100801.25;4439233;32;20084;-72
2022/03/16 00:42:07;;;;;;;24.35;11.43;;;;;;;7.43;55.86;100798.56;4439224;32;20101;-72
2022/03/16 00:44:35;;;;;;;26.60;11.73;;;;;;;7.44;55.07;100795.06;4424783;32;20143;-72
2022/03/16 00:47:04;;;;;;;19.85;10.52;;;;;;;7.36;57.99;100796.78;4439215;32;20116;-72
2022/03/16 00:49:31;;;;;;;26.60;11.20;;;;;;;7.41;55.88;100795.03;4439292;32;20115;-72
2022/03/16 00:51:59;;;;;;;19.50;11.07;;;;;;;7.31;58.11;100794.09;4439077;32;20097;-72
2022/03/16 00:54:28;;;;;;;23.20;11.75;;;;;;;7.15;65.37;100785.25;4439324;32;20183;-72
2022/03/16 00:56:56;;;;;;;35.60;12.73;;;;;;;7.04;60.50;100779.03;4439102;32;20089;-72
2022/03/16 00:59:23;;;;;;;28.50;12.93;;;;;;;6.98;67.06;100770.25;4424790;32;20150;-72
2022/03/16 01:01:51;;;;;;;25.40;13.23;;;;;;;6.85;68.37;100756.13;4439268;32;20147;-72
2022/03/16 01:04:18;;;;;;;28.33;12.55;;;;;;;6.77;67.02;100761.31;4439081;32;20108;-72
2022/03/16 01:06:46;;;;;;;32.03;13.18;;;;;;;6.63;66.25;100753.31;4439208;32;20480;-72
2022/03/16 01:09:13;;;;;;;24.00;13.05;;;;;;;6.62;67.38;100748.94;4439023;32;20126;-72
2022/03/16 01:11:40;;;;;;;23.27;12.18;;;;;;;6.56;68.74;100754.12;4424664;32;20131;-72
2022/03/16 01:14:07;;;;;;;23.00;11.75;;;;;;;6.58;67.63;100756.78;4439031;32;20101;-72
2022/03/16 01:16:37;;;;;;;22.27;12.77;;;;;;;6.49;67.47;100759.28;4439119;32;20120;-72
2022/03/16 01:19:05;;;;;;;24.20;13.00;;;;;;;6.43;69.72;100752.22;4439113;32;20574;-72
2022/03/16 01:21:34;;;;;;;22.25;12.10;;;;;;;6.38;72.02;100759.16;4438800;32;20124;-72
2022/03/16 01:24:01;;;;;;;22.83;12.57;;;;;;;6.36;70.61;100760.88;4424746;32;20093;-72
2022/03/16 01:26:28;;;;;;;28.40;13.20;;;;;;;6.31;71.54;100763.44;4439052;32;20115;-72
2022/03/16 01:28:56;;;;;;;23.83;12.40;;;;;;;6.37;69.98;100767.88;4438933;32;20081;-72
2022/03/16 01:31:23;;;;;;;22.98;12.45;;;;;;;6.37;71.03;100778.34;4438777;32;20593;-72
2022/03/16 01:33:50;;;;;;;28.90;13.23;;;;;;;6.32;73.81;100777.41;4439056;32;20110;-72
2022/03/16 01:36:18;;;;;;;24.58;12.77;;;;;;;6.32;73.42;100790.50;4438762;32;20119;-72
2022/03/16 01:38:46;;;;;;;27.30;13.62;;;;;;;6.43;71.67;100788.88;4438928;32;20101;-72
2022/03/16 01:41:13;;;;;;;25.62;12.40;;;;;;;6.40;72.53;100792.34;4438849;32;20386;-72
2022/03/16 01:43:41;;;;;;;29.42;13.55;;;;;;;6.65;68.58;100795.25;4438843;32;20776;-72
2022/03/16 01:46:08;;;;;;;25.77;12.57;;;;;;;6.67;70.94;100798.75;4424554;32;20089;-72
2022/03/16 01:48:37;;;;;;;25.92;13.43;;;;;;;6.62;70.39;100800.44;4438728;32;20093;-72
2022/03/16 01:51:04;;;;;;;31.33;13.85;;;;;;;6.50;72.44;100793.31;4438836;32;20120;-72
2022/03/16 01:53:31;;;;;;;29.67;13.13;;;;;;;6.46;74.81;100794.16;4438715;32;20109;-72
2022/03/16 01:55:59;;;;;;;38.35;13.23;;;;;;;6.41;74.68;100796.72;4424225;32;20089;-72
2022/03/16 01:58:26;;;;;;;27.95;13.98;;;;;;;6.37;76.74;100796.69;4438643;32;20539;-72
2022/03/16 02:00:59;;;;;;;28.98;14.18;;;;;;;6.37;74.86;100794.06;4438922;32;20756;-72
2022/03/16 02:03:27;;;;;;;28.12;12.60;;;;;;;6.47;73.42;100790.69;4438590;32;20100;-72
2022/03/16 02:05:55;;;;;;;31.75;14.55;;;;;;;6.41;74.61;100782.75;4438938;32;20139;-72
2022/03/16 02:08:22;;;;;;;26.98;14.18;;;;;;;6.38;77.12;100783.59;4424234;32;20097;-72
2022/03/16 02:10:50;;;;;;;24.40;13.38;;;;;;;6.37;77.79;100789.69;4424371;32;20128;-72
2022/03/16 02:13:17;;;;;;;24.90;12.80;;;;;;;6.34;80.00;100796.63;4411773;32;20101;-72
2022/03/16 02:15:44;;;;;;;28.08;13.57;;;;;;;6.40;77.59;100794.97;4438600;32;20107;-72
2022/03/16 02:18:12;;;;;;;25.67;13.62;;;;;;;6.32;80.49;100785.25;4438534;32;20123;-72
2022/03/16 02:20:40;;;;;;;34.53;14.63;;;;;;;6.28;80.20;100770.38;4438627;32;20093;-72
2022/03/16 02:23:08;;;;;;;25.80;13.57;;;;;;;6.28;79.36;100771.25;4438339;32;20524;-72
2022/03/16 02:26:11;;;;;;;23.87;13.07;;;;;;;6.27;80.30;100766.03;4438543;32;20089;-72
2022/03/16 02:28:39;;;;;;;29.87;14.63;;;;;;;6.23;82.27;100765.97;4397708;32;20128;-72
2022/03/16 02:31:06;;;;;;;27.52;14.05;;;;;;;6.18;82.87;100765.06;4438288;32;20093;-72
2022/03/16 02:33:33;;;;;;;27.52;14.55;;;;;;;6.18;82.72;100762.44;4423981;32;20515;-72
2022/03/16 02:36:01;;;;;;;27.40;14.05;;;;;;;6.17;83.75;100765.03;4438379;32;20168;-72
2022/03/16 02:38:28;;;;;;;27.17;15.05;;;;;;;6.15;83.85;100746.72;4398515;32;20450;-72
2022/03/16 02:40:55;;;;;;;32.42;15.57;;;;;;;6.15;83.31;100736.25;4438329;32;20420;-72
2022/03/16 02:43:24;;;;;;;26.65;14.32;;;;;;;6.18;81.88;100730.12;4424038;32;20178;-72
2022/03/16 02:45:51;;;;;;;28.33;14.20;;;;;;;6.37;79.34;100720.78;4424009;32;20093;-72
2022/03/16 02:48:18;;;;;;;29.02;13.32;;;;;;;6.47;78.15;100720.00;4425153;32;20081;-72
2022/03/16 02:50:46;;;;;;;30.23;14.23;;;;;;;6.54;77.73;100718.34;4439958;32;20847;-72
2022/03/16 02:53:15;;;;;;;28.92;14.40;;;;;;;6.60;77.54;100713.12;4440048;32;20643;-72
2022/03/16 02:55:48;;;;;;;28.33;14.35;;;;;;;6.50;81.63;100714.78;4440101;32;20105;-72
2022/03/16 02:58:16;;;;;;;33.08;14.27;;;;;;;6.34;82.62;100715.50;4440013;32;20150;-72
2022/03/16 03:00:44;;;;;;;27.65;13.62;;;;;;;6.27;84.18;100704.09;4440055;32;20405;-72
2022/03/16 03:03:12;;;;;;;32.15;13.60;;;;;;;6.25;82.90;100713.66;4425649;32;20135;-72
2022/03/16 03:05:39;;;;;;;27.10;15.27;;;;;;;6.21;83.96;100710.12;4425604;32;20162;-72
2022/03/16 03:08:06;;;;;;;23.98;13.60;;;;;;;6.17;85.16;100699.62;4425552;32;20097;-72
2022/03/16 03:10:34;;;;;;;33.20;14.95;;;;;;;6.19;84.31;100710.97;4439822;32;20117;-72
2022/03/16 03:13:01;;;;;;;32.20;16.05;;;;;;;6.22;84.11;100711.91;4439773;32;20451;-72
2022/03/16 03:15:29;;;;;;;27.45;15.75;;;;;;;6.16;84.27;100710.94;4439960;32;20081;-72
2022/03/16 03:17:56;;;;;;;32.15;16.50;;;;;;;6.28;83.04;100713.69;4439782;32;20172;-72
2022/03/16 03:20:23;;;;;;;31.27;16.23;;;;;;;6.35;82.24;100706.78;4425633;32;20169;-72
2022/03/16 03:22:50;;;;;;;31.58;15.55;;;;;;;6.50;80.30;100703.44;4425232;32;20108;-72
2022/03/16 03:25:18;;;;;;;30.73;15.25;;;;;;;6.66;78.92;100703.59;4440045;32;20164;-72
2022/03/16 03:27:45;;;;;;;33.45;14.90;;;;;;;6.58;80.09;100692.19;4439825;32;20146;-72
2022/03/16 03:30:12;;;;;;;31.98;15.48;;;;;;;6.52;80.99;100684.28;4439794;32;20105;-72
2022/03/16 03:32:39;;;;;;;27.85;15.32;;;;;;;6.40;85.04;100678.94;4439687;32;20123;-72
2022/03/16 03:35:07;;;;;;;36.13;15.90;;;;;;;6.19;86.67;100664.75;4425250;32;20521;-72
2022/03/16 03:37:36;;;;;;;27.62;15.05;;;;;;;6.16;82.27;100648.16;4439686;32;20146;-72
2022/03/16 03:40:05;;;;;;;28.20;14.52;;;;;;;6.10;82.35;100638.50;4425493;32;20173;-72
2022/03/16 03:42:33;;;;;;;30.12;15.25;;;;;;;6.16;81.88;100633.34;4425299;32;20174;-72
2022/03/16 03:45:00;;;;;;;31.27;15.75;;;;;;;6.35;79.15;100636.13;4425321;32;20153;-72
2022/03/16 03:47:27;;;;;;;27.45;14.93;;;;;;;6.27;82.09;100622.97;4439607;32;20618;-72
2022/03/16 03:49:55;;;;;;;29.73;15.32;;;;;;;6.11;85.03;100615.81;4439543;32;20162;-72
2022/03/16 03:52:22;;;;;;;30.85;15.68;;;;;;;6.02;83.80;100616.63;4439478;32;20416;-72
2022/03/16 03:54:49;;;;;;;29.80;15.32;;;;;;;5.95;85.97;100617.41;4439691;32;20419;-72
2022/03/16 03:57:17;;;;;;;41.45;16.33;;;;;;;5.92;84.45;100606.87;4439598;32;20101;-72
2022/03/16 03:59:44;;;;;;;29.40;15.23;;;;;;;5.86;87.58;100596.34;4439410;32;20096;-72
2022/03/16 04:02:11;;;;;;;28.67;13.80;;;;;;;5.87;87.20;100598.12;4439670;32;20582;-72
2022/03/16 04:04:39;;;;;;;34.28;15.77;;;;;;;5.92;84.93;100597.31;4439491;32;20381;-72
2022/03/16 04:07:06;;;;;;;34.80;16.90;;;;;;;5.90;85.10;100600.75;4425110;32;20119;-72
2022/03/16 04:09:33;;;;;;;35.47;16.42;;;;;;;5.92;85.80;100596.41;4439433;32;20432;-72
2022/03/16 04:12:01;;;;;;;30.98;15.15;;;;;;;5.89;87.18;100601.62;4439364;32;20105;-72
2022/03/16 04:14:28;;;;;;;32.97;16.02;;;;;;;5.83;89.19;100593.69;4439525;32;20165;-72
2022/03/16 04:16:55;;;;;;;30.12;15.70;;;;;;;5.80;89.11;100583.22;4439421;32;20133;-72
2022/03/16 04:19:23;;;;;;;37.65;16.00;;;;;;;5.89;86.04;100594.66;4433434;32;195381;-72
2022/03/16 04:21:50;;;;;;;32.33;15.20;;;;;;;5.98;84.66;100600.00;4439378;32;20161;-72
2022/03/16 04:24:17;;;;;;;32.00;15.90;;;;;;;6.03;82.12;100591.34;4439224;32;20187;-72
2022/03/16 04:26:45;;;;;;;30.62;15.68;;;;;;;5.94;83.52;100572.09;4439444;32;20090;-72
2022/03/16 04:29:12;;;;;;;31.27;14.85;;;;;;;5.98;83.56;100578.22;4425054;32;20131;-72
2022/03/16 04:31:39;;;;;;;27.70;14.73;;;;;;;6.12;80.08;100584.47;4439275;32;20101;-72
2022/03/16 04:34:07;;;;;;;28.77;14.43;;;;;;;6.08;82.55;100585.31;4439612;32;20511;-72
2022/03/16 04:36:34;;;;;;;28.95;15.45;;;;;;;6.12;80.30;100594.06;4439231;32;20418;-72
2022/03/16 04:39:01;;;;;;;28.33;14.57;;;;;;;6.06;83.55;100589.63;4424904;32;20101;-72
2022/03/16 04:41:28;;;;;;;33.45;14.85;;;;;;;6.00;83.55;100594.78;4439194;32;20162;-72
2022/03/16 04:43:56;;;;;;;31.85;14.63;;;;;;;6.02;83.14;100597.44;4439253;32;20547;-72
2022/03/16 04:46:23;;;;;;;26.90;15.73;;;;;;;6.12;81.73;100596.66;4439168;32;20451;-72
2022/03/16 04:48:51;;;;;;;37.47;15.15;;;;;;;6.01;85.72;100585.19;4424971;32;20181;-72
2022/03/16 04:51:19;;;;;;;34.35;15.43;;;;;;;6.05;84.44;100593.13;4438983;32;20101;-72
2022/03/16 04:53:46;;;;;;;26.50;15.40;;;;;;;6.16;84.19;100594.09;4439126;32;20131;-72
2022/03/16 04:56:14;;;;;;;39.20;16.10;;;;;;;6.34;82.56;100595.12;4439305;32;20101;-72
2022/03/16 04:58:41;;;;;;;41.85;15.70;;;;;;;6.38;82.12;100596.91;4424989;32;20124;-72
2022/03/16 05:01:08;;;;;;;32.20;16.02;;;;;;;6.36;80.00;100598.59;4421334;32;20656;-72
2022/03/16 05:03:35;;;;;;;30.62;15.43;;;;;;;6.42;78.81;100598.66;4409589;32;20081;-72
2022/03/16 05:06:04;;;;;;;31.42;14.63;;;;;;;6.43;78.51;100600.41;4418968;32;20093;-72
2022/03/16 05:08:35;;;;;;;23.00;14.60;;;;;;;6.35;79.84;100610.81;4439072;32;20101;-72
2022/03/16 05:11:03;;;;;;;32.03;14.77;;;;;;;6.45;78.15;100607.41;4438438;32;20499;-72
2022/03/16 05:13:30;;;;;;;27.42;14.57;;;;;;;6.52;77.37;100604.88;4436661;32;20089;-73
2022/03/16 05:15:57;;;;;;;28.05;14.77;;;;;;;6.57;76.60;100613.63;4437917;32;20143;-73
2022/03/16 05:18:26;;;;;;;33.70;14.18;;;;;;;6.61;76.73;100611.06;4423552;32;20109;-73
2022/03/16 05:20:53;;;;;;;26.30;14.20;;;;;;;6.59;78.59;100620.63;4439943;32;20101;-72
2022/03/16 05:23:20;;;;;;;35.95;15.27;;;;;;;6.59;78.96;100625.88;4419797;32;20704;-73
2022/03/16 05:25:48;;;;;;;27.50;14.32;;;;;;;6.58;81.05;100636.34;4424040;32;20169;-73
2022/03/16 05:28:16;;;;;;;32.70;14.18;;;;;;;6.50;81.55;100628.38;4410074;32;20128;-72
2022/03/16 05:30:44;;;;;;;36.45;14.55;;;;;;;6.40;82.56;100626.59;4424608;32;20101;-73
2022/03/16 05:33:11;;;;;;;22.35;13.23;;;;;;;6.36;83.71;100628.31;4424220;32;20157;-73
2022/03/16 05:35:41;;;;;;;29.10;14.02;;;;;;;6.37;83.80;100631.78;4424436;32;20175;-72
2022/03/16 05:38:12;;;;;;;24.35;13.55;;;;;;;6.38;84.19;100625.69;4424245;32;20098;-73
2022/03/16 05:40:43;;;;;;;33.53;14.13;;;;;;;6.44;85.29;100613.53;4424435;32;20105;-72
2022/03/16 05:43:11;;;;;;;22.10;12.32;;;;;;;6.40;85.32;100627.47;4424330;32;20113;-73
2022/03/16 05:45:39;;;;;;;26.48;13.98;;;;;;;6.38;87.07;100623.94;4424153;32;20085;-73
2022/03/16 05:48:07;;;;;;;34.03;12.27;;;;;;;6.42;86.77;100635.31;4423886;32;20781;-72
2022/03/16 05:50:34;;;;;;;24.63;13.75;;;;;;;6.49;87.19;100637.13;4423321;32;20109;-73
2022/03/16 05:53:02;;;;;;;25.25;14.25;;;;;;;6.50;87.10;100623.16;4415084;32;20176;-72
2022/03/16 05:55:30;;;;;;;20.45;12.30;;;;;;;6.54;88.28;100627.59;4428175;32;20131;-73
2022/03/16 05:57:57;;;;;;;23.55;11.70;;;;;;;6.58;88.94;100625.88;4424642;32;20086;-72
2022/03/16 06:00:24;;;;;;;20.37;12.32;;;;;;;6.59;89.25;100631.09;4439495;32;20135;-72
2022/03/16 06:02:52;;;;;;;38.83;13.23;;;;;;;6.65;88.97;100622.44;4437810;32;20154;-72
2022/03/16 06:05:23;;;;;;;24.02;12.60;;;;;;;6.68;88.60;100640.78;4419543;32;20142;-73
2022/03/16 06:07:51;;;;;;;19.83;11.18;;;;;;;6.76;89.30;100635.59;4438662;32;20276;-73
2022/03/16 06:10:19;;;;;;;24.85;12.90;;;;;;;6.82;88.33;100633.91;4436753;32;20117;-73
2022/03/16 06:13:07;;;;;;;20.10;11.82;;;;;;;6.85;87.80;100638.28;4426470;32;20153;-72
2022/03/16 06:15:40;;;;;;;19.23;12.37;;;;;;;7.08;85.94;100660.28;4423322;32;20181;-72
2022/03/16 06:18:09;;;;;;;22.73;12.07;;;;;;;7.23;87.00;100669.09;4416728;32;20772;-74
2022/03/16 06:20:37;;;;;;;20.83;11.20;;;;;;;7.41;84.72;100672.69;4424886;32;20769;-72
2022/03/16 06:23:05;;;;;;;22.05;12.00;;;;;;;7.50;84.55;100658.78;4437596;32;20365;-71
2022/03/16 06:25:36;;;;;;;15.90;10.80;;;;;;;7.57;83.93;100660.56;4436733;32;20109;-73
2022/03/16 06:28:03;;;;;;;20.08;12.05;;;;;;;7.64;82.95;100666.72;4423542;32;20177;-73
2022/03/16 06:30:31;;;;;;;22.62;11.12;;;;;;;7.77;81.48;100672.88;4430343;32;20093;-73
2022/03/16 06:32:58;;;;;;;28.25;11.12;;;;;;;7.93;81.13;100668.59;4423857;32;20764;-72
2022/03/16 06:35:25;;;;;;;27.62;12.48;;;;;;;8.06;79.44;100666.00;4423675;32;20120;-72
2022/03/16 06:37:52;;;;;;;19.70;12.23;;;;;;;8.11;80.77;100663.38;4423509;32;20204;-72
2022/03/16 06:40:20;;;;;;;29.87;12.05;;;;;;;8.19;80.93;100660.78;4423303;32;20511;-73
2022/03/16 06:42:50;;;;;;;19.42;11.12;;;;;;;8.20;80.30;100660.78;4423347;32;20077;-74
2022/03/16 06:45:19;;;;;;;31.17;13.80;;;;;;;8.14;81.14;100663.41;4423105;32;20876;-73
2022/03/16 06:47:47;;;;;;;18.40;11.50;;;;;;;8.14;80.80;100666.03;4431021;32;20105;-73
2022/03/16 06:50:15;;;;;;;25.02;12.68;;;;;;;8.06;81.67;100670.38;4438897;32;20096;-72
2022/03/16 06:52:42;;;;;;;21.80;11.32;;;;;;;8.12;82.25;100670.38;4438581;32;20115;-73
2022/03/16 06:55:10;;;;;;;20.15;11.05;;;;;;;8.18;82.64;100677.41;4438608;32;20097;-73
2022/03/16 06:57:37;;;;;;;27.62;14.87;;;;;;;8.11;82.05;100682.62;4438509;32;20097;-73
2022/03/16 07:00:07;;;;;;;25.65;12.02;;;;;;;8.17;83.73;100680.91;4424399;32;20174;-73
2022/03/16 07:03:06;;;;;;;22.60;13.02;;;;;;;8.08;84.02;100677.37;4438789;32;20100;-74
2022/03/16 07:05:37;;;;;;;20.05;11.93;;;;;;;8.03;86.05;100679.12;4396039;32;20097;-73
2022/03/16 07:08:07;;;;;;;23.85;13.35;;;;;;;7.90;87.30;100672.06;4423698;32;20315;-72
2022/03/16 07:10:35;;;;;;;20.10;12.65;;;;;;;7.99;86.83;100685.22;4438260;32;20097;-72
2022/03/16 07:13:11;;;;;;;18.83;11.85;;;;;;;8.19;86.32;100693.12;4438186;32;20764;-71
2022/03/16 07:15:44;;;;;;;20.45;12.27;;;;;;;8.24;86.43;100686.16;4431140;32;20097;-72
2022/03/16 07:18:12;;;;;;;27.17;12.30;;;;;;;8.20;86.07;100692.28;4435865;32;20118;-74
2022/03/16 07:20:40;;;;;;;19.42;12.25;;;;;;;8.23;85.52;100684.41;4425348;32;20118;-72
2022/03/16 07:23:12;;;;;;;19.02;12.77;;;;;;;8.38;85.29;100684.50;4408068;32;20085;-72
2022/03/16 07:25:43;;;;;;;31.85;12.93;;;;;;;8.48;85.38;100680.13;4421704;32;20865;-71
2022/03/16 07:28:11;;;;;;;25.35;12.55;;;;;;;8.54;85.54;100684.50;4422669;32;20509;-72
2022/03/16 07:30:39;;;;;;;31.12;12.13;;;;;;;8.61;85.21;100681.00;4422611;32;20761;-73
2022/03/16 07:33:08;;;;;;;26.80;11.85;;;;;;;8.52;85.47;100681.88;4423361;32;20123;-72
2022/03/16 07:35:36;;;;;;;21.98;12.27;;;;;;;8.48;85.90;100681.84;4425156;32;20124;-72
2022/03/16 07:38:05;;;;;;;25.05;11.82;;;;;;;8.50;86.66;100674.87;4424819;32;20420;-73
2022/03/16 07:40:35;;;;;;;22.48;11.70;;;;;;;8.69;85.83;100666.09;4424990;32;20129;-73
2022/03/16 07:43:04;;;;;;;24.17;11.27;;;;;;;8.82;85.35;100678.38;4424826;32;20146;-73
2022/03/16 07:45:34;;;;;;;27.30;11.55;;;;;;;8.70;85.05;100685.41;4424625;32;20082;-73
2022/03/16 07:48:01;;;;;;;21.10;11.88;;;;;;;8.70;85.18;100685.41;4434082;32;20116;-74
2022/03/16 07:50:29;;;;;;;22.23;12.43;;;;;;;8.71;85.25;100684.53;4440391;32;20196;-75
2022/03/16 07:52:58;;;;;;;24.98;12.50;;;;;;;8.59;86.62;100685.41;4440125;32;20549;-73
2022/03/16 07:55:27;;;;;;;21.02;11.68;;;;;;;8.61;86.27;100686.25;4440285;32;20097;-74
2022/03/16 07:57:55;;;;;;;19.37;10.90;;;;;;;8.59;86.96;100685.41;4426054;32;20578;-73
2022/03/16 08:00:24;;;;;;;18.08;10.30;;;;;;;8.59;86.92;100690.66;4434228;32;20777;-73
2022/03/16 08:02:56;;;;;;;19.15;10.48;;;;;;;8.65;86.81;100692.38;4431707;32;20802;-73
2022/03/16 08:05:24;;;;;;;16.98;10.73;;;;;;;8.64;87.11;100693.28;4428410;32;20471;-73
2022/03/16 08:07:51;;;;;;;17.30;10.52;;;;;;;8.73;86.24;100681.03;4431795;32;20399;-73
2022/03/16 08:10:18;;;;;;;18.67;10.85;;;;;;;8.86;85.05;100695.03;4412829;32;20121;-72
2022/03/16 08:12:46;;;;;;;20.45;9.75;;;;;;;8.88;85.21;100690.66;4398505;32;20116;-72
2022/03/16 08:15:13;;;;;;;16.67;10.18;;;;;;;9.05;83.81;100691.53;4429726;32;20162;-72
2022/03/16 08:17:40;;;;;;;25.75;10.68;;;;;;;9.14;83.91;100687.13;4432779;32;20720;-72
2022/03/16 08:20:08;;;;;;;22.50;10.45;;;;;;;9.23;82.88;100692.38;4434128;32;20165;-74
2022/03/16 08:22:36;;;;;;;18.20;9.98;;;;;;;9.17;83.57;100705.53;4439301;32;20101;-73
2022/03/16 08:25:06;;;;;;;18.48;10.30;;;;;;;9.10;84.60;100697.66;4437405;32;20094;-77
2022/03/16 08:27:34;;;;;;;16.55;9.95;;;;;;;9.24;82.60;100704.66;4440150;32;20093;-77
2022/03/16 08:30:01;;;;;;;18.30;10.20;;;;;;;9.25;82.35;100695.88;4440105;32;20093;-77
2022/03/16 08:32:29;;;;;;;17.02;10.25;;;;;;;9.17;82.44;100714.28;4425842;32;20131;-77
2022/03/16 08:34:56;;;;;;;23.45;11.10;;;;;;;9.16;82.93;100704.66;4433670;32;20101;-77
2022/03/16 08:37:24;;;;;;;20.75;10.38;;;;;;;9.12;82.93;100705.53;4430948;32;20085;-77
2022/03/16 08:39:51;;;;;;;28.38;10.38;;;;;;;9.02;81.92;100699.41;4434526;32;20097;-78
2022/03/16 08:42:18;;;;;;;14.48;9.82;;;;;;;8.88;82.61;100724.81;4431526;32;20085;-78
2022/03/16 08:44:45;;;;;;;15.00;9.40;;;;;;;8.75;83.72;100726.53;4406260;32;20101;-77
2022/03/16 08:47:16;;;;;;;15.60;9.88;;;;;;;8.70;83.24;100732.69;4429447;32;20124;-76
2022/03/16 08:49:45;;;;;;;20.42;10.63;;;;;;;8.64;84.03;100735.31;4418674;32;20125;-77
2022/03/16 08:52:13;;;;;;;17.15;10.55;;;;;;;8.57;85.30;100743.16;4428785;32;20887;-76
2022/03/16 08:54:41;;;;;;;14.77;9.88;;;;;;;8.56;84.93;100753.69;4431796;32;20100;-76
2022/03/16 08:57:09;;;;;;;17.92;10.75;;;;;;;8.44;86.38;100748.38;4430418;32;20093;-74
2022/03/16 08:59:38;;;;;;;18.05;10.90;;;;;;;8.41;86.60;100751.00;4430861;32;20100;-76
2022/03/16 09:02:06;;;;;;;15.45;10.07;;;;;;;8.55;86.75;100754.53;4430252;32;20694;-76
2022/03/16 09:04:34;;;;;;;20.88;11.05;;;;;;;8.73;85.75;100748.47;4431500;32;20166;-76
2022/03/16 09:07:02;;;;;;;16.00;10.48;;;;;;;8.96;84.36;100754.59;4431787;32;20713;-76
2022/03/16 09:09:30;;;;;;;16.48;10.07;;;;;;;9.09;83.13;100758.13;4434402;32;20445;-77
2022/03/16 09:11:58;;;;;;;16.98;10.30;;;;;;;9.05;83.61;100752.00;4439794;32;20100;-76
2022/03/16 09:14:25;;;;;;;17.65;10.63;;;;;;;9.03;83.29;100755.47;4437216;32;20421;-77
2022/03/16 09:16:53;;;;;;;26.33;12.48;;;;;;;8.99;83.32;100751.97;4424350;32;20090;-76
2022/03/16 09:19:20;;;;;;;17.77;10.93;;;;;;;8.89;83.62;100759.84;4424255;32;20230;-77
2022/03/16 09:21:49;;;;;;;22.98;11.35;;;;;;;8.84;84.07;100762.47;4423891;32;20073;-77
2022/03/16 09:24:17;;;;;;;15.98;10.35;;;;;;;8.72;85.43;100762.44;4424443;32;20185;-77
2022/03/16 09:26:45;;;;;;;16.33;10.55;;;;;;;8.66;85.19;100773.84;4424289;32;20442;-77
2022/03/16 09:29:12;;;;;;;16.33;10.77;;;;;;;8.62;86.41;100779.94;4424088;32;20101;-77
2022/03/16 09:31:43;;;;;;;17.60;10.65;;;;;;;8.49;86.87;100788.69;4424286;32;20077;-76
2022/03/16 09:34:10;;;;;;;19.67;11.32;;;;;;;8.44;87.52;100793.03;4424223;32;20086;-75
2022/03/16 09:36:39;;;;;;;19.92;10.57;;;;;;;8.38;87.86;100794.75;4397190;32;20554;-76
2022/03/16 09:39:06;;;;;;;18.08;10.90;;;;;;;8.41;84.92;100800.88;4424000;32;20153;-77
2022/03/16 09:41:34;;;;;;;20.58;10.43;;;;;;;8.38;83.82;100801.78;4424180;32;20089;-78
2022/03/16 09:44:05;;;;;;;16.60;9.00;;;;;;;8.32;83.72;100831.47;4424212;32;20564;-75
2022/03/16 09:46:35;;;;;;;15.82;10.32;;;;;;;8.18;84.55;100806.87;4423958;32;20094;-75
2022/03/16 09:49:07;;;;;;;20.10;11.75;;;;;;;8.11;85.42;100807.72;4430896;32;20153;-77
2022/03/16 09:51:36;;;;;;;18.33;10.85;;;;;;;8.06;86.19;100812.97;4433990;32;20176;-78
2022/03/16 09:54:04;;;;;;;17.33;11.00;;;;;;;8.03;86.86;100823.44;4423981;32;20136;-77
2022/03/16 09:56:35;;;;;;;16.90;10.40;;;;;;;7.98;88.98;100825.16;4423429;32;20123;-77
2022/03/16 09:59:02;;;;;;;18.58;11.07;;;;;;;7.84;90.34;100821.56;4438946;32;20101;-77
2022/03/16 10:01:29;;;;;;;15.55;10.45;;;;;;;7.76;91.94;100832.00;4434393;32;20149;-76
2022/03/16 10:04:00;;;;;;;18.05;10.90;;;;;;;7.69;92.51;100824.97;4439585;32;20170;-76
2022/03/16 10:06:27;;;;;;;18.30;10.68;;;;;;;7.73;92.82;100833.75;4439501;32;20085;-78
2022/03/16 10:14:26;;;;;;;17.08;10.35;;;;;;;8.10;89.39;100830.47;4433602;32;20116;-75
2022/03/16 10:19:52;;;;;;;15.45;9.90;;;;;;;8.34;88.89;100834.97;4423851;32;20215;-78
2022/03/16 10:22:28;;;;;;;20.17;10.43;;;;;;;8.44;88.41;100841.16;4423670;32;20081;-78
2022/03/16 10:25:04;;;;;;;17.23;11.35;;;;;;;8.54;88.08;100842.09;4423908;32;20154;-77
2022/03/16 10:27:36;;;;;;;18.45;11.40;;;;;;;8.46;87.84;100838.56;4423395;32;20093;-76
2022/03/16 10:30:06;;;;;;;18.60;10.80;;;;;;;8.63;86.75;100836.00;4423836;32;20094;-78
2022/03/16 10:32:40;;;;;;;17.30;9.75;;;;;;;8.62;86.43;100850.84;4423856;32;20085;-76
2022/03/16 10:35:08;;;;;;;16.08;9.43;;;;;;;8.57;86.92;100842.97;4423588;32;20093;-78
2022/03/16 10:37:39;;;;;;;16.80;8.63;;;;;;;8.80;85.43;100844.81;4427830;32;20626;-77
2022/03/16 10:40:17;;;;;;;14.10;8.50;;;;;;;8.79;84.95;100837.78;4423180;32;20172;-77
2022/03/16 10:48:19;;;;;;;13.82;9.07;;;;;;;9.03;83.25;100835.22;4427431;32;20489;-77
2022/03/16 10:50:55;;;;;;;17.02;8.35;;;;;;;9.25;83.10;100829.97;4422756;32;20133;-76
2022/03/16 10:53:28;;;;;;;17.12;8.55;;;;;;;9.51;80.98;100835.25;4423258;32;20115;-78
2022/03/16 10:56:01;;;;;;;14.07;8.55;;;;;;;9.87;79.26;100836.09;4426455;32;20708;-77
2022/03/16 10:58:29;;;;;;;13.10;8.15;;;;;;;9.79;78.90;100844.00;4426902;32;20159;-78
2022/03/16 11:00:57;;;;;;;13.02;9.13;;;;;;;9.87;78.50;100849.25;4422950;32;20221;-78
2022/03/16 11:03:26;;;;;;;13.62;8.48;;;;;;;9.88;77.92;100845.72;4423060;32;20077;-77
2022/03/16 11:05:56;;;;;;;10.93;8.18;;;;;;;9.64;78.62;100847.50;4423331;32;20134;-78
2022/03/16 11:08:25;;;;;;;10.30;7.40;;;;;;;9.78;78.11;100852.75;4424388;32;20110;-78
2022/03/16 11:10:52;;;;;;;13.00;6.78;;;;;;;9.85;77.86;100857.13;4425492;32;20128;-79
2022/03/16 11:13:30;;;;;;;10.52;8.15;;;;;;;9.88;76.91;100859.75;4425298;32;20090;-79
2022/03/16 11:16:00;;;;;;;9.88;7.47;;;;;;;9.88;78.89;100856.25;4425475;32;20141;-77
2022/03/16 11:18:27;;;;;;;12.80;7.35;;;;;;;9.71;77.09;100858.91;4432619;32;20097;-76
2022/03/16 11:20:58;;;;;;;9.50;6.78;;;;;;;9.55;77.84;100865.94;4427943;32;20094;-76
2022/03/16 11:26:27;;;;;;;9.20;6.82;;;;;;;9.42;78.65;100872.06;4432596;32;20093;-75
2022/03/16 11:29:12;;;;;;;10.27;6.62;;;;;;;9.58;77.48;100865.94;4425114;32;20128;-77
2022/03/16 11:31:42;;;;;;;10.13;7.82;;;;;;;9.75;77.12;100864.19;4425605;32;20089;-74
2022/03/16 11:34:11;;;;;;;10.90;7.28;;;;;;;9.45;77.60;100872.94;4437622;32;20161;-79
2022/03/16 11:36:43;;;;;;;8.23;6.70;;;;;;;9.43;77.92;100861.53;4433702;32;20155;-76
2022/03/16 11:39:21;;;;;;;8.23;6.65;;;;;;;9.60;76.26;100865.94;4428778;32;20170;-76
2022/03/16 11:41:53;;;;;;;10.05;6.85;;;;;;;9.34;77.40;100867.69;4437551;32;20089;-77